Armutova, Turkey
Current Conditions -  °F | °C
As of 11:50 PM on Wednesday 22 Oct 2014 (Local Time) from LTFD Reporting Station
Broken Clouds Broken Clouds  
Wind Chill: 72°   Ceiling: 10000
Heat Index: 72°   Visibility: 6mi
Dew Point: 54°   Wind: 18mph
Humidity: 53%   Direction: 190°S
Pressure: 29.74"   Gusts: 31mph
Location:  39.39°N, 26.84°E
Report Text: LTFD 222050Z 19016G27KT 9999 SCT035 BKN100 22/12 Q1007
Loading
Personal Weather Stations






























Interactive Weather Map
Tropical Storm Tracking
New forecast layout! Learn more

10-Day Weather Forecast

Advertisements
Track Severe Weather on mobile